createdAt,value
2023-04-20T00:01:49.284Z,99.90
2023-04-20T00:04:18.379Z,99.90
2023-04-20T00:06:46.752Z,99.90
2023-04-20T00:09:15.709Z,99.90
2023-04-20T00:11:44.127Z,99.90
2023-04-20T00:14:12.426Z,99.90
2023-04-20T00:16:40.824Z,99.90
2023-04-20T00:19:10.778Z,99.90
2023-04-20T00:21:39.565Z,99.90
2023-04-20T00:24:08.420Z,99.90
2023-04-20T00:26:36.620Z,99.90
2023-04-20T00:29:05.202Z,99.90
2023-04-20T00:31:33.800Z,99.90
2023-04-20T00:34:02.048Z,99.90
2023-04-20T00:36:31.740Z,99.90
2023-04-20T00:39:00.305Z,99.90
2023-04-20T00:41:30.458Z,99.90
2023-04-20T00:44:01.022Z,99.90
2023-04-20T00:46:29.416Z,99.90
2023-04-20T00:48:58.931Z,99.90
2023-04-20T00:51:29.233Z,99.90
2023-04-20T00:54:00.865Z,99.90
2023-04-20T00:56:29.204Z,99.90
2023-04-20T00:58:57.532Z,99.90
2023-04-20T01:01:27.161Z,99.90
2023-04-20T01:03:55.828Z,99.90
2023-04-20T01:06:24.160Z,99.90
2023-04-20T01:08:55.225Z,99.90
2023-04-20T01:11:24.909Z,99.90
2023-04-20T01:13:53.314Z,99.90
2023-04-20T01:16:21.770Z,99.90
2023-04-20T01:18:51.306Z,99.90
2023-04-20T01:21:21.993Z,99.90
2023-04-20T01:23:51.772Z,99.90
2023-04-20T01:26:21.008Z,99.90
2023-04-20T01:28:52.212Z,99.90
2023-04-20T01:31:21.431Z,99.90
2023-04-20T01:33:50.223Z,99.90
2023-04-20T01:36:22.151Z,99.90
2023-04-20T01:38:51.963Z,99.90
2023-04-20T01:41:20.274Z,99.90
2023-04-20T01:43:50.162Z,99.90
2023-04-20T01:46:18.442Z,99.90
2023-04-20T01:48:48.620Z,99.90
2023-04-20T01:51:16.868Z,99.90
2023-04-20T01:53:45.135Z,99.90
2023-04-20T01:56:14.862Z,99.90
2023-04-20T01:58:44.017Z,99.90
2023-04-20T02:01:12.370Z,99.90
2023-04-20T02:03:41.047Z,99.90
2023-04-20T02:06:09.719Z,99.90
2023-04-20T02:08:38.129Z,99.90
2023-04-20T02:11:09.255Z,99.90
2023-04-20T02:13:38.916Z,99.90
2023-04-20T02:16:07.732Z,99.90
2023-04-20T02:18:35.942Z,99.90
2023-04-20T02:21:04.285Z,99.90
2023-04-20T02:23:32.668Z,99.90
2023-04-20T02:26:01.010Z,99.90
2023-04-20T02:28:29.378Z,99.90
2023-04-20T02:30:59.245Z,99.90
2023-04-20T02:33:27.498Z,99.90
2023-04-20T02:35:56.031Z,99.90
2023-04-20T02:38:24.360Z,99.90
2023-04-20T02:40:52.616Z,99.90
2023-04-20T02:43:21.593Z,99.90
2023-04-20T02:45:50.444Z,99.90
2023-04-20T02:48:22.583Z,99.90
2023-04-20T02:50:50.887Z,99.90
2023-04-20T02:53:22.580Z,99.90
2023-04-20T02:55:58.406Z,99.90
2023-04-20T02:58:45.641Z,99.90
2023-04-20T03:01:21.943Z,99.90
2023-04-20T03:03:54.589Z,99.90
2023-04-20T03:06:23.021Z,99.90
2023-04-20T03:08:56.581Z,99.90
2023-04-20T03:11:43.262Z,99.90
2023-04-20T03:14:17.184Z,99.90
2023-04-20T03:16:46.495Z,99.90
2023-04-20T03:19:17.189Z,99.90
2023-04-20T03:21:46.041Z,99.90
2023-04-20T03:24:14.394Z,99.90
2023-04-20T03:26:42.708Z,99.90
2023-04-20T03:29:20.768Z,99.90
2023-04-20T03:31:49.249Z,99.90
2023-04-20T03:34:19.061Z,99.90
2023-04-20T03:36:47.358Z,99.90
2023-04-20T03:39:16.068Z,99.90
2023-04-20T03:41:57.920Z,99.90
2023-04-20T03:44:27.794Z,99.90
2023-04-20T03:46:56.098Z,99.90
2023-04-20T03:49:26.859Z,99.90
2023-04-20T03:51:55.151Z,99.90
2023-04-20T03:54:24.348Z,99.90
2023-04-20T03:56:52.694Z,99.90
2023-04-20T03:59:22.360Z,99.90
2023-04-20T04:01:52.048Z,99.90
2023-04-20T04:04:21.289Z,99.90
2023-04-20T04:06:51.195Z,99.90
2023-04-20T04:09:19.639Z,99.90
2023-04-20T04:11:48.025Z,99.90
2023-04-20T04:14:16.416Z,99.90
2023-04-20T04:16:44.888Z,99.90
2023-04-20T04:19:14.723Z,99.90
2023-04-20T04:21:43.068Z,99.90
2023-04-20T04:24:13.477Z,99.90
2023-04-20T04:26:56.434Z,99.90
2023-04-20T04:29:25.949Z,99.90
2023-04-20T04:31:55.710Z,99.90
2023-04-20T04:34:24.263Z,99.90
2023-04-20T04:36:54.482Z,99.90
2023-04-20T04:39:32.466Z,99.90
2023-04-20T04:42:11.869Z,99.90
2023-04-20T04:44:45.164Z,99.90
2023-04-20T04:47:20.141Z,99.90
2023-04-20T04:49:48.805Z,99.90
2023-04-20T04:52:17.127Z,99.90
2023-04-20T04:54:47.263Z,99.90
2023-04-20T04:57:15.821Z,99.90
2023-04-20T04:59:44.100Z,99.90
2023-04-20T05:02:12.564Z,99.90
2023-04-20T05:04:41.191Z,99.90
2023-04-20T05:07:10.575Z,99.90
2023-04-20T05:09:39.077Z,99.90
2023-04-20T05:12:09.072Z,99.90
2023-04-20T05:14:37.396Z,99.90
2023-04-20T05:17:05.819Z,99.90
2023-04-20T05:19:34.109Z,99.90
2023-04-20T05:22:02.385Z,99.90
2023-04-20T05:24:30.718Z,99.90
2023-04-20T05:26:58.980Z,99.90
2023-04-20T05:29:28.728Z,99.90
2023-04-20T05:31:56.987Z,99.90
2023-04-20T05:34:25.345Z,99.90
2023-04-20T05:36:54.992Z,99.90
2023-04-20T05:39:23.459Z,99.90
2023-04-20T05:41:51.719Z,99.90
2023-04-20T05:44:21.237Z,99.90
2023-04-20T05:46:51.168Z,99.90
2023-04-20T05:49:19.719Z,99.90
2023-04-20T05:51:48.181Z,99.90
2023-04-20T05:54:16.604Z,99.90
2023-04-20T05:56:44.921Z,99.90
2023-04-20T05:59:14.150Z,99.90
2023-04-20T06:01:42.540Z,99.90
2023-04-20T06:04:12.605Z,99.90
2023-04-20T06:06:41.414Z,99.90
2023-04-20T06:09:10.092Z,99.90
2023-04-20T06:11:38.422Z,99.90
2023-04-20T06:14:06.658Z,99.90
2023-04-20T06:16:35.074Z,99.90
2023-04-20T06:19:03.526Z,99.90
2023-04-20T06:21:34.414Z,99.90
2023-04-20T06:24:02.701Z,99.90
2023-04-20T06:26:31.039Z,99.90
2023-04-20T06:28:59.365Z,99.90
2023-04-20T06:31:27.685Z,99.90
2023-04-20T06:33:56.054Z,99.90
2023-04-20T06:36:24.302Z,99.90
2023-04-20T06:38:54.740Z,99.90
2023-04-20T06:41:23.011Z,99.90
2023-04-20T06:43:51.725Z,99.90
2023-04-20T06:46:20.083Z,99.90
2023-04-20T06:48:48.438Z,99.90
2023-04-20T06:51:16.770Z,99.90
2023-04-20T06:53:45.043Z,99.90
2023-04-20T06:56:14.926Z,99.90
2023-04-20T06:58:43.176Z,99.90
2023-04-20T07:01:11.669Z,99.90
2023-04-20T07:03:40.245Z,99.90
2023-04-20T07:06:11.180Z,99.90
2023-04-20T07:08:40.224Z,99.90
2023-04-20T07:11:08.514Z,99.90
2023-04-20T07:13:38.313Z,99.90
2023-04-20T07:16:06.912Z,99.90
2023-04-20T07:18:35.662Z,99.90
2023-04-20T07:21:04.204Z,99.90
2023-04-20T07:23:32.441Z,99.90
2023-04-20T07:26:00.762Z,99.90
2023-04-20T07:28:29.078Z,99.90
2023-04-20T07:30:59.575Z,99.90
2023-04-20T07:33:29.928Z,99.90
2023-04-20T07:35:58.233Z,99.90
2023-04-20T07:40:58.272Z,99.90
2023-04-20T07:43:26.540Z,99.90
2023-04-20T07:45:54.865Z,99.90
2023-04-20T07:48:24.564Z,99.90
2023-04-20T07:50:52.885Z,99.90
2023-04-20T07:53:21.355Z,99.90
2023-04-20T07:55:50.947Z,99.90
2023-04-20T07:58:19.564Z,99.90
2023-04-20T08:00:47.840Z,99.90
2023-04-20T08:03:16.426Z,99.90
2023-04-20T08:05:46.448Z,99.90
2023-04-20T08:08:14.875Z,99.90
2023-04-20T08:10:43.123Z,99.90
2023-04-20T08:13:11.420Z,99.90
2023-04-20T08:15:40.682Z,99.90
2023-04-20T08:18:09.430Z,99.90
2023-04-20T08:20:37.771Z,99.90
2023-04-20T08:23:07.516Z,99.90
2023-04-20T08:25:36.020Z,99.90
2023-04-20T08:28:06.241Z,99.90
2023-04-20T08:30:37.077Z,99.90
2023-04-20T08:33:05.450Z,99.90
2023-04-20T08:35:33.883Z,99.90
2023-04-20T08:38:02.165Z,99.90
2023-04-20T08:40:33.481Z,99.90
2023-04-20T08:43:01.960Z,99.90
2023-04-20T08:45:32.271Z,99.90
2023-04-20T08:48:02.132Z,99.90
2023-04-20T08:50:31.833Z,99.90
2023-04-20T08:53:01.247Z,99.90
2023-04-20T08:55:29.677Z,99.90
2023-04-20T08:57:59.361Z,99.90
2023-04-20T09:00:27.665Z,99.90
2023-04-20T09:02:59.177Z,99.90
2023-04-20T09:05:28.830Z,99.90
2023-04-20T09:07:58.275Z,99.90
2023-04-20T09:10:27.017Z,99.90
2023-04-20T09:12:55.342Z,99.90
2023-04-20T09:15:29.582Z,99.90
2023-04-20T09:17:57.967Z,99.90
2023-04-20T09:20:32.762Z,99.90
2023-04-20T09:23:11.976Z,99.90
2023-04-20T09:25:41.171Z,99.90
2023-04-20T09:28:09.635Z,99.90
2023-04-20T09:30:40.162Z,99.90
2023-04-20T09:33:11.018Z,99.90
2023-04-20T09:35:40.598Z,99.90
2023-04-20T09:38:08.995Z,99.90
2023-04-20T09:40:37.274Z,99.90
2023-04-20T09:43:08.782Z,99.90
2023-04-20T09:45:40.530Z,99.90
2023-04-20T09:48:09.661Z,99.90
2023-04-20T09:50:48.404Z,99.90
2023-04-20T09:53:18.563Z,99.90
2023-04-20T09:55:47.394Z,99.90
2023-04-20T09:58:15.761Z,99.90
2023-04-20T10:00:45.462Z,99.90
2023-04-20T10:03:17.283Z,99.90
2023-04-20T10:05:46.283Z,99.90
2023-04-20T10:08:14.592Z,99.80
2023-04-20T10:10:46.655Z,99.30
2023-04-20T10:13:15.780Z,99.80
2023-04-20T10:15:45.505Z,99.50
2023-04-20T10:18:18.214Z,99.10
2023-04-20T10:20:46.775Z,98.30
2023-04-20T10:23:16.505Z,97.60
2023-04-20T10:25:45.550Z,97.40
2023-04-20T10:28:13.884Z,97.70
2023-04-20T10:30:52.888Z,97.50
2023-04-20T10:33:23.075Z,97.50
2023-04-20T10:35:52.169Z,97.30
2023-04-20T10:38:29.862Z,97.60
2023-04-20T10:40:58.355Z,97.80
2023-04-20T10:43:26.828Z,97.40
2023-04-20T10:45:56.612Z,97.70
2023-04-20T10:48:24.927Z,98.80
2023-04-20T10:50:53.270Z,99.70
2023-04-20T10:53:22.282Z,99.90
2023-04-20T10:55:59.354Z,99.90
2023-04-20T10:58:27.692Z,99.90
2023-04-20T11:01:01.354Z,99.90
2023-04-20T11:03:30.619Z,99.90
2023-04-20T11:06:01.656Z,99.90
2023-04-20T11:08:40.083Z,99.90
2023-04-20T11:11:18.898Z,99.90
2023-04-20T11:13:47.295Z,99.90
2023-04-20T11:16:17.792Z,99.90
2023-04-20T11:18:53.257Z,99.90
2023-04-20T11:21:22.001Z,99.90
2023-04-20T11:23:50.619Z,99.90
2023-04-20T11:26:19.012Z,99.90
2023-04-20T11:28:55.806Z,99.90
2023-04-20T11:31:28.184Z,99.90
2023-04-20T11:33:56.491Z,99.90
2023-04-20T11:36:25.220Z,99.90
2023-04-20T11:38:53.533Z,99.90
2023-04-20T11:41:21.891Z,99.90
2023-04-20T11:43:50.443Z,99.90
2023-04-20T11:46:20.391Z,99.60
2023-04-20T11:48:50.313Z,99.70
2023-04-20T11:51:18.733Z,99.90
2023-04-20T11:53:47.017Z,99.90
2023-04-20T11:56:15.245Z,99.60
2023-04-20T11:58:43.956Z,99.20
2023-04-20T12:01:13.352Z,99.00
2023-04-20T12:03:42.038Z,98.50
2023-04-20T12:06:12.817Z,98.10
2023-04-20T12:08:41.088Z,97.40
2023-04-20T12:11:09.342Z,97.90
2023-04-20T12:13:37.655Z,98.00
2023-04-20T12:16:06.281Z,97.80
2023-04-20T12:18:34.767Z,97.40
2023-04-20T12:21:03.062Z,97.80
2023-04-20T12:23:33.281Z,97.70
2023-04-20T12:26:01.610Z,98.50
2023-04-20T12:28:29.873Z,98.30
2023-04-20T12:30:58.341Z,98.60
2023-04-20T12:33:26.613Z,98.70
2023-04-20T12:35:54.859Z,98.80
2023-04-20T12:38:23.165Z,98.80
2023-04-20T12:40:52.870Z,98.60
2023-04-20T12:43:21.203Z,98.60
2023-04-20T12:45:49.477Z,98.70
2023-04-20T12:48:17.813Z,99.00
2023-04-20T12:50:46.102Z,98.40
2023-04-20T12:53:14.526Z,98.80
2023-04-20T12:55:42.817Z,98.60
2023-04-20T12:58:12.765Z,98.50
2023-04-20T13:00:43.231Z,98.80
2023-04-20T13:03:11.677Z,98.70
2023-04-20T13:05:39.997Z,98.60
2023-04-20T13:08:08.557Z,98.60
2023-04-20T13:10:37.295Z,98.60
2023-04-20T13:13:05.648Z,98.10
2023-04-20T13:15:38.930Z,98.60
2023-04-20T13:18:09.926Z,98.50
2023-04-20T13:20:38.419Z,98.00
2023-04-20T13:23:06.689Z,98.00
2023-04-20T13:25:35.078Z,98.20
2023-04-20T13:28:05.199Z,98.60
2023-04-20T13:30:33.630Z,98.60
2023-04-20T13:33:03.350Z,98.50
2023-04-20T13:35:31.693Z,98.70
2023-04-20T13:37:59.973Z,98.60
2023-04-20T13:40:28.250Z,98.80
2023-04-20T13:42:57.559Z,98.40
2023-04-20T13:45:25.994Z,98.40
2023-04-20T13:47:54.357Z,98.70
2023-04-20T13:50:24.176Z,98.50
2023-04-20T13:52:52.463Z,97.90
2023-04-20T13:55:20.860Z,98.50
2023-04-20T13:57:49.132Z,98.20
2023-04-20T14:00:17.769Z,98.20
2023-04-20T14:02:46.418Z,97.60
2023-04-20T14:05:14.775Z,97.60
2023-04-20T14:07:44.395Z,98.00
2023-04-20T14:10:12.806Z,98.00
2023-04-20T14:12:41.050Z,98.10
2023-04-20T14:15:09.795Z,98.30
2023-04-20T14:17:38.192Z,98.40
2023-04-20T14:20:07.090Z,98.50
2023-04-20T14:22:36.781Z,98.00
2023-04-20T14:25:06.835Z,97.90
2023-04-20T14:27:35.149Z,97.70
2023-04-20T14:30:03.939Z,97.40
2023-04-20T14:32:32.355Z,97.90
2023-04-20T14:35:01.377Z,97.60
2023-04-20T14:37:30.180Z,97.40
2023-04-20T14:39:58.439Z,97.60
2023-04-20T14:42:28.118Z,97.60
2023-04-20T14:44:56.443Z,99.90
2023-04-20T14:47:24.801Z,97.00
2023-04-20T14:49:53.060Z,96.90
2023-04-20T14:52:21.319Z,96.80
2023-04-20T14:54:49.603Z,96.70
2023-04-20T14:57:18.038Z,96.60
2023-04-20T14:59:47.740Z,96.90
2023-04-20T15:02:16.091Z,97.20
2023-04-20T15:04:44.786Z,97.60
2023-04-20T15:07:13.582Z,97.30
2023-04-20T15:09:41.870Z,97.60
2023-04-20T15:12:10.178Z,97.70
2023-04-20T15:14:38.472Z,97.70
2023-04-20T15:17:08.356Z,97.90
2023-04-20T15:19:36.837Z,97.40
2023-04-20T15:22:05.238Z,97.50
2023-04-20T15:24:33.544Z,97.40
2023-04-20T15:27:02.522Z,97.30
2023-04-20T15:29:31.930Z,97.40
2023-04-20T15:32:00.308Z,97.40
2023-04-20T15:34:30.499Z,97.20
2023-04-20T15:36:59.254Z,97.30
2023-04-20T15:39:27.596Z,97.50
2023-04-20T15:41:55.999Z,97.50
2023-04-20T15:44:24.331Z,98.00
2023-04-20T15:46:54.048Z,98.10
2023-04-20T15:49:22.387Z,98.70
2023-04-20T15:51:52.128Z,98.80
2023-04-20T15:54:23.921Z,99.30
2023-04-20T15:56:52.283Z,99.50
2023-04-20T15:59:20.895Z,99.80
2023-04-20T16:01:49.239Z,99.90
2023-04-20T16:04:17.909Z,99.90
2023-04-20T16:06:46.883Z,99.90
2023-04-20T16:09:17.553Z,99.90
2023-04-20T16:11:45.889Z,99.90
2023-04-20T16:14:14.200Z,99.90
2023-04-20T16:16:42.554Z,99.90
2023-04-20T16:19:11.765Z,99.90
2023-04-20T16:21:40.145Z,99.90
2023-04-20T16:24:08.504Z,99.90
2023-04-20T16:26:39.516Z,99.90
2023-04-20T16:29:09.141Z,99.90
2023-04-20T16:31:37.965Z,99.90
2023-04-20T16:34:06.644Z,99.90
2023-04-20T16:36:35.751Z,99.90
2023-04-20T16:39:06.683Z,99.90
2023-04-20T16:41:35.144Z,99.90
2023-04-20T16:44:04.875Z,99.90
2023-04-20T16:46:33.195Z,99.90
2023-04-20T16:49:02.889Z,99.90
2023-04-20T16:51:31.249Z,99.90
2023-04-20T16:54:00.108Z,99.90
2023-04-20T16:56:28.914Z,99.90
2023-04-20T16:58:57.217Z,99.90
2023-04-20T17:01:27.273Z,99.90
2023-04-20T17:03:55.915Z,99.90
2023-04-20T17:06:24.298Z,99.90
2023-04-20T17:08:55.438Z,99.90
2023-04-20T17:11:23.931Z,99.90
2023-04-20T17:13:52.728Z,99.90
2023-04-20T17:16:21.108Z,99.90
2023-04-20T17:18:52.150Z,99.90
2023-04-20T17:21:20.545Z,99.90
2023-04-20T17:23:48.774Z,99.90
2023-04-20T17:26:17.059Z,99.90
2023-04-20T17:28:46.474Z,99.90
2023-04-20T17:31:14.794Z,99.90
2023-04-20T17:33:43.538Z,99.90
2023-04-20T17:36:13.256Z,99.90
2023-04-20T17:38:41.545Z,99.90
2023-04-20T17:41:09.794Z,99.90
2023-04-20T17:43:40.610Z,99.90
2023-04-20T17:46:09.107Z,99.90
2023-04-20T17:48:37.500Z,99.90
2023-04-20T17:51:05.794Z,99.90
2023-04-20T17:53:35.458Z,99.90
2023-04-20T17:56:04.314Z,99.90
2023-04-20T17:58:32.605Z,99.90
2023-04-20T18:01:01.032Z,99.90
2023-04-20T18:03:29.578Z,99.90
2023-04-20T18:06:00.762Z,99.90
2023-04-20T18:08:29.537Z,99.90
2023-04-20T18:10:59.227Z,99.90
2023-04-20T18:13:27.684Z,99.90
2023-04-20T18:15:56.069Z,99.90
2023-04-20T18:18:24.410Z,99.90
2023-04-20T18:20:52.747Z,99.90
2023-04-20T18:23:20.963Z,99.90
2023-04-20T18:25:49.324Z,99.90
2023-04-20T18:28:19.019Z,99.90
2023-04-20T18:30:47.321Z,99.90
2023-04-20T18:33:15.762Z,99.90
2023-04-20T18:35:44.178Z,99.90
2023-04-20T18:38:12.558Z,99.90
2023-04-20T18:40:40.870Z,99.90
2023-04-20T18:43:09.161Z,99.90
2023-04-20T18:45:38.890Z,99.90
2023-04-20T18:48:07.350Z,99.90
2023-04-20T18:50:35.646Z,99.90
2023-04-20T18:53:05.211Z,99.90
2023-04-20T18:55:33.523Z,99.90
2023-04-20T18:58:01.736Z,99.90
2023-04-20T19:00:30.071Z,99.90
2023-04-20T19:02:59.937Z,99.90
2023-04-20T19:05:28.458Z,99.90
2023-04-20T19:07:56.741Z,99.90
2023-04-20T19:10:26.166Z,99.90
2023-04-20T19:12:54.507Z,99.90
2023-04-20T19:15:25.845Z,99.90
2023-04-20T19:17:54.518Z,99.90
2023-04-20T19:20:24.448Z,99.90
2023-04-20T19:22:53.038Z,99.90
2023-04-20T19:25:21.587Z,99.90
2023-04-20T19:27:50.053Z,99.90
2023-04-20T19:30:18.359Z,99.90
2023-04-20T19:32:46.718Z,99.90
2023-04-20T19:35:14.972Z,99.90
2023-04-20T19:37:44.979Z,99.90
2023-04-20T19:40:13.382Z,99.90
2023-04-20T19:42:42.541Z,99.90
2023-04-20T19:45:11.140Z,99.90
2023-04-20T19:47:39.438Z,99.90
2023-04-20T19:50:08.205Z,99.90
2023-04-20T19:52:36.523Z,99.90
2023-04-20T19:55:06.852Z,99.90
2023-04-20T19:57:35.168Z,99.90
2023-04-20T20:00:04.447Z,99.90
2023-04-20T20:02:41.332Z,99.90
2023-04-20T20:05:10.131Z,99.90
2023-04-20T20:07:38.522Z,99.90
2023-04-20T20:10:10.702Z,99.90
2023-04-20T20:12:38.983Z,99.90
2023-04-20T20:15:07.639Z,99.90
2023-04-20T20:17:36.000Z,99.90
2023-04-20T20:20:06.251Z,99.90
2023-04-20T20:22:34.630Z,99.90
2023-04-20T20:25:03.136Z,99.90
2023-04-20T20:27:32.831Z,99.90
2023-04-20T20:30:01.093Z,99.90
2023-04-20T20:32:29.444Z,99.90
2023-04-20T20:34:57.741Z,99.90
2023-04-20T20:37:26.148Z,99.90
2023-04-20T20:39:54.484Z,99.90
2023-04-20T20:42:23.657Z,99.90
2023-04-20T20:44:53.388Z,99.90
2023-04-20T20:47:21.945Z,99.90
2023-04-20T20:49:50.200Z,99.90
2023-04-20T20:52:18.601Z,99.90
2023-04-20T20:54:46.960Z,99.90
2023-04-20T20:57:15.184Z,99.90
2023-04-20T20:59:43.478Z,99.90
2023-04-20T21:02:13.421Z,99.90
2023-04-20T21:04:41.870Z,99.90
2023-04-20T21:07:10.148Z,99.90
2023-04-20T21:09:38.459Z,99.90
2023-04-20T21:12:07.236Z,99.90
2023-04-20T21:14:37.254Z,99.90
2023-04-20T21:17:05.775Z,99.90
2023-04-20T21:19:35.580Z,99.90
2023-04-20T21:22:03.922Z,99.90
2023-04-20T21:24:32.178Z,99.90
2023-04-20T21:27:00.665Z,99.90
2023-04-20T21:29:29.025Z,99.90
2023-04-20T21:31:57.784Z,99.90
2023-04-20T21:34:26.596Z,99.90
2023-04-20T21:37:03.556Z,99.90
2023-04-20T21:39:31.978Z,99.90
2023-04-20T21:42:00.381Z,99.90
2023-04-20T21:44:28.885Z,99.90
2023-04-20T21:46:57.269Z,99.90
2023-04-20T21:49:25.626Z,99.90
2023-04-20T21:51:53.973Z,99.90
2023-04-20T21:54:23.974Z,99.90
2023-04-20T21:56:52.245Z,99.90
2023-04-20T21:59:20.732Z,99.90
2023-04-20T22:01:49.394Z,99.90
2023-04-20T22:04:18.004Z,99.90
2023-04-20T22:06:47.156Z,99.90
2023-04-20T22:09:18.090Z,99.90
2023-04-20T22:11:48.319Z,99.90
2023-04-20T22:14:16.869Z,99.90
2023-04-20T22:16:45.200Z,99.90
2023-04-20T22:19:13.550Z,99.90
2023-04-20T22:21:43.118Z,99.90
2023-04-20T22:24:11.385Z,99.90
2023-04-20T22:26:39.720Z,99.90
2023-04-20T22:29:09.402Z,99.90
2023-04-20T22:31:37.793Z,99.90
2023-04-20T22:34:06.105Z,99.90
2023-04-20T22:36:35.306Z,99.90
2023-04-20T22:39:03.609Z,99.90
2023-04-20T22:41:32.084Z,99.90
2023-04-20T22:44:00.412Z,99.90
2023-04-20T22:46:30.158Z,99.90
2023-04-20T22:48:58.512Z,99.90
2023-04-20T22:51:29.267Z,99.90
2023-04-20T22:53:57.722Z,99.90
2023-04-20T22:56:26.466Z,99.90
2023-04-20T22:58:54.830Z,99.90
2023-04-20T23:01:23.557Z,99.90
2023-04-20T23:03:53.566Z,99.90
2023-04-20T23:06:22.305Z,99.90
2023-04-20T23:08:50.677Z,99.90
2023-04-20T23:11:18.988Z,99.90
2023-04-20T23:13:47.881Z,99.90
2023-04-20T23:16:16.704Z,99.90
2023-04-20T23:18:45.000Z,99.90
2023-04-20T23:21:14.832Z,99.90
2023-04-20T23:23:43.099Z,99.90
2023-04-20T23:26:11.397Z,99.90
2023-04-20T23:31:08.517Z,99.90
2023-04-20T23:33:36.839Z,99.90
2023-04-20T23:36:05.325Z,99.90
2023-04-20T23:38:35.113Z,99.90
2023-04-20T23:41:08.806Z,99.90
2023-04-20T23:43:37.371Z,99.90
2023-04-20T23:46:05.928Z,99.90
2023-04-20T23:48:34.513Z,99.90
2023-04-20T23:51:03.037Z,99.90
2023-04-20T23:56:01.967Z,99.90
2023-04-20T23:58:34.262Z,99.90
